createdAt,value
2023-04-18T00:02:19.022Z,2.80
2023-04-18T00:04:45.987Z,3.10
2023-04-18T00:07:14.969Z,3.00
2023-04-18T00:09:42.029Z,2.70
2023-04-18T00:12:08.729Z,3.50
2023-04-18T00:14:35.790Z,3.00
2023-04-18T00:17:02.354Z,2.70
2023-04-18T00:19:28.921Z,2.80
2023-04-18T00:21:55.462Z,2.70
2023-04-18T00:24:21.966Z,2.90
2023-04-18T00:26:48.471Z,2.60
2023-04-18T00:29:14.940Z,2.60
2023-04-18T00:31:41.407Z,2.20
2023-04-18T00:34:07.879Z,2.60
2023-04-18T00:36:34.375Z,2.80
2023-04-18T00:39:00.849Z,2.80
2023-04-18T00:41:27.484Z,2.90
2023-04-18T00:43:54.427Z,3.10
2023-04-18T00:46:20.908Z,3.00
2023-04-18T00:48:48.417Z,3.00
2023-04-18T00:51:15.486Z,3.10
2023-04-18T00:53:44.259Z,3.10
2023-04-18T00:56:11.493Z,3.20
2023-04-18T00:58:38.151Z,3.50
2023-04-18T01:01:04.735Z,3.60
2023-04-18T01:03:31.338Z,3.40
2023-04-18T01:05:58.015Z,3.30
2023-04-18T01:08:24.664Z,3.40
2023-04-18T01:10:51.128Z,3.40
2023-04-18T01:13:19.966Z,3.00
2023-04-18T01:15:48.486Z,3.60
2023-04-18T01:18:16.111Z,3.20
2023-04-18T01:20:47.811Z,3.30
2023-04-18T01:23:15.206Z,3.30
2023-04-18T01:25:42.205Z,3.20
2023-04-18T01:28:10.457Z,3.20
2023-04-18T01:30:36.988Z,3.60
2023-04-18T01:33:04.750Z,3.00
2023-04-18T01:35:32.530Z,3.30
2023-04-18T01:38:00.008Z,3.60
2023-04-18T01:40:26.751Z,3.60
2023-04-18T01:42:53.295Z,3.60
2023-04-18T01:45:20.379Z,3.60
2023-04-18T01:47:47.201Z,3.50
2023-04-18T01:50:14.146Z,3.40
2023-04-18T01:52:40.667Z,3.80
2023-04-18T01:55:07.577Z,3.50
2023-04-18T01:57:37.510Z,3.30
2023-04-18T02:00:06.795Z,3.70
2023-04-18T02:02:33.458Z,3.50
2023-04-18T02:05:00.044Z,3.30
2023-04-18T02:07:26.785Z,3.60
2023-04-18T02:09:53.293Z,3.60
2023-04-18T02:12:19.812Z,3.90
2023-04-18T02:14:50.512Z,3.50
2023-04-18T02:17:17.058Z,3.70
2023-04-18T02:19:43.536Z,3.50
2023-04-18T02:22:10.030Z,3.40
2023-04-18T02:24:36.480Z,4.00
2023-04-18T02:27:03.041Z,3.80
2023-04-18T02:29:29.536Z,4.00
2023-04-18T02:31:56.089Z,4.10
2023-04-18T02:34:22.638Z,4.40
2023-04-18T02:36:49.437Z,3.80
2023-04-18T02:39:15.923Z,4.50
2023-04-18T02:41:42.415Z,4.40
2023-04-18T02:44:09.101Z,4.10
2023-04-18T02:46:35.618Z,4.20
2023-04-18T02:49:02.184Z,4.60
2023-04-18T02:51:28.633Z,4.40
2023-04-18T02:53:55.096Z,4.00
2023-04-18T02:56:22.232Z,4.50
2023-04-18T02:58:48.927Z,4.20
2023-04-18T03:01:17.409Z,4.50
2023-04-18T03:03:44.297Z,4.70
2023-04-18T03:06:10.775Z,4.40
2023-04-18T03:08:37.291Z,4.10
2023-04-18T03:11:03.854Z,4.10
2023-04-18T03:13:30.440Z,4.10
2023-04-18T03:15:56.969Z,4.50
2023-04-18T03:18:23.647Z,4.30
2023-04-18T03:20:50.106Z,4.00
2023-04-18T03:23:16.592Z,4.20
2023-04-18T03:25:43.089Z,4.10
2023-04-18T03:28:09.593Z,4.50
2023-04-18T03:30:36.092Z,4.50
2023-04-18T03:33:02.826Z,4.40
2023-04-18T03:35:29.513Z,5.20
2023-04-18T03:37:56.042Z,4.40
2023-04-18T03:40:22.532Z,3.70
2023-04-18T03:42:48.996Z,4.00
2023-04-18T03:45:15.561Z,4.50
2023-04-18T03:47:42.133Z,4.50
2023-04-18T03:50:09.084Z,4.60
2023-04-18T03:52:35.566Z,4.50
2023-04-18T03:55:02.054Z,4.30
2023-04-18T03:57:28.531Z,4.80
2023-04-18T03:59:54.986Z,4.20
2023-04-18T04:02:21.622Z,4.20
2023-04-18T04:04:48.314Z,4.10
2023-04-18T04:07:14.869Z,4.60
2023-04-18T04:09:41.399Z,5.00
2023-04-18T04:12:07.918Z,4.70
2023-04-18T04:14:34.416Z,4.90
2023-04-18T04:17:00.978Z,5.20
2023-04-18T04:19:27.471Z,5.20
2023-04-18T04:21:53.970Z,5.10
2023-04-18T04:24:20.513Z,5.00
2023-04-18T04:26:47.017Z,5.20
2023-04-18T04:29:13.499Z,5.40
2023-04-18T04:31:40.003Z,4.90
2023-04-18T04:34:06.470Z,5.30
2023-04-18T04:36:32.973Z,5.40
2023-04-18T04:38:59.435Z,5.50
2023-04-18T04:41:25.979Z,5.30
2023-04-18T04:43:52.455Z,5.10
2023-04-18T04:46:18.932Z,5.30
2023-04-18T04:48:45.792Z,5.30
2023-04-18T04:51:12.276Z,5.80
2023-04-18T04:53:38.793Z,5.90
2023-04-18T04:56:05.491Z,5.60
2023-04-18T04:58:31.989Z,5.60
2023-04-18T05:00:58.486Z,6.40
2023-04-18T05:03:25.124Z,6.30
2023-04-18T05:05:51.764Z,5.90
2023-04-18T05:08:18.217Z,6.00
2023-04-18T05:10:44.678Z,5.90
2023-04-18T05:13:11.533Z,5.50
2023-04-18T05:15:38.054Z,5.60
2023-04-18T05:18:04.688Z,5.80
2023-04-18T05:20:31.252Z,5.90
2023-04-18T05:22:57.713Z,6.30
2023-04-18T05:25:24.503Z,6.60
2023-04-18T05:27:50.997Z,6.30
2023-04-18T05:30:17.508Z,6.30
2023-04-18T05:32:44.044Z,6.40
2023-04-18T05:35:10.561Z,6.10
2023-04-18T05:37:37.074Z,5.50
2023-04-18T05:40:05.246Z,6.10
2023-04-18T05:42:31.735Z,6.70
2023-04-18T05:44:58.198Z,7.10
2023-04-18T05:47:24.766Z,5.90
2023-04-18T05:49:51.237Z,6.20
2023-04-18T05:52:17.780Z,6.40
2023-04-18T05:54:44.237Z,6.50
2023-04-18T05:57:10.730Z,5.90
2023-04-18T05:59:37.391Z,6.00
2023-04-18T06:02:03.900Z,6.00
2023-04-18T06:04:30.560Z,6.10
2023-04-18T06:06:57.345Z,6.80
2023-04-18T06:09:23.888Z,5.60
2023-04-18T06:11:50.334Z,5.60
2023-04-18T06:14:16.821Z,5.70
2023-04-18T06:16:43.455Z,5.20
2023-04-18T06:19:10.064Z,5.70
2023-04-18T06:21:36.529Z,5.20
2023-04-18T06:24:03.038Z,5.30
2023-04-18T06:26:29.610Z,5.10
2023-04-18T06:28:56.092Z,4.90
2023-04-18T06:31:22.624Z,5.20
2023-04-18T06:33:49.176Z,5.30
2023-04-18T06:36:15.639Z,4.80
2023-04-18T06:38:42.149Z,4.70
2023-04-18T06:41:08.634Z,5.00
2023-04-18T06:43:35.094Z,4.60
2023-04-18T06:46:03.122Z,4.80
2023-04-18T06:48:29.598Z,5.20
2023-04-18T06:50:56.107Z,4.30
2023-04-18T06:53:22.789Z,4.30
2023-04-18T06:55:49.488Z,3.70
2023-04-18T06:58:16.944Z,3.20
2023-04-18T07:00:43.599Z,3.20
2023-04-18T07:03:11.444Z,3.20
2023-04-18T07:05:40.728Z,2.80
2023-04-18T07:08:07.861Z,2.40
2023-04-18T07:10:34.350Z,2.80
2023-04-18T07:13:00.789Z,2.90
2023-04-18T07:15:27.319Z,2.30
2023-04-18T07:17:53.842Z,3.00
2023-04-18T07:20:20.402Z,2.70
2023-04-18T07:22:46.911Z,2.50
2023-04-18T07:25:13.454Z,2.40
2023-04-18T07:27:39.961Z,2.20
2023-04-18T07:30:07.153Z,2.10
2023-04-18T07:32:33.674Z,2.40
2023-04-18T07:35:00.214Z,2.70
2023-04-18T07:37:26.810Z,2.30
2023-04-18T07:39:53.292Z,2.70
2023-04-18T07:42:19.834Z,2.50
2023-04-18T07:44:46.283Z,2.10
2023-04-18T07:47:12.800Z,2.20
2023-04-18T07:49:39.298Z,2.50
2023-04-18T07:52:05.859Z,2.30
2023-04-18T07:54:32.396Z,2.20
2023-04-18T07:56:59.576Z,2.10
2023-04-18T07:59:26.048Z,2.30
2023-04-18T08:01:52.653Z,2.00
2023-04-18T08:04:19.340Z,1.90
2023-04-18T08:06:45.974Z,1.80
2023-04-18T08:09:12.584Z,1.90
2023-04-18T08:11:39.276Z,1.90
2023-04-18T08:14:05.778Z,2.10
2023-04-18T08:16:32.336Z,1.80
2023-04-18T08:18:58.846Z,1.80
2023-04-18T08:21:25.388Z,2.00
2023-04-18T08:23:51.854Z,2.00
2023-04-18T08:26:18.326Z,1.50
2023-04-18T08:28:46.350Z,1.80
2023-04-18T08:31:14.178Z,1.90
2023-04-18T08:33:41.608Z,1.90
2023-04-18T08:36:08.507Z,2.20
2023-04-18T08:38:35.207Z,1.40
2023-04-18T08:41:01.720Z,1.80
2023-04-18T08:43:28.185Z,1.90
2023-04-18T08:45:59.105Z,1.90
2023-04-18T08:48:25.669Z,2.00
2023-04-18T08:50:56.925Z,1.90
2023-04-18T08:53:23.482Z,1.70
2023-04-18T08:55:54.700Z,1.60
2023-04-18T08:58:21.340Z,1.80
2023-04-18T09:00:51.735Z,2.00
2023-04-18T09:03:36.016Z,1.50
2023-04-18T09:06:13.188Z,1.90
2023-04-18T09:08:43.793Z,1.50
2023-04-18T09:11:27.604Z,1.70
2023-04-18T09:13:55.280Z,1.80
2023-04-18T09:16:22.677Z,1.80
2023-04-18T09:19:09.582Z,2.00
2023-04-18T09:21:39.121Z,2.00
2023-04-18T09:24:25.861Z,1.90
2023-04-18T09:26:53.527Z,1.90
2023-04-18T09:29:20.395Z,1.90
2023-04-18T09:32:01.617Z,1.70
2023-04-18T09:34:29.241Z,3.10
2023-04-18T09:37:07.053Z,2.10
2023-04-18T09:39:33.656Z,1.80
2023-04-18T09:42:00.908Z,1.70
2023-04-18T09:44:27.520Z,1.50
2023-04-18T09:46:53.998Z,2.00
2023-04-18T09:49:20.524Z,1.60
2023-04-18T09:51:50.506Z,1.60
2023-04-18T09:54:17.911Z,1.50
2023-04-18T09:56:45.772Z,1.60
2023-04-18T09:59:14.633Z,1.50
2023-04-18T10:01:41.699Z,1.90
2023-04-18T10:04:10.045Z,1.50
2023-04-18T10:06:36.793Z,1.40
2023-04-18T10:09:03.934Z,1.50
2023-04-18T10:11:31.610Z,1.50
2023-04-18T10:14:03.310Z,1.40
2023-04-18T10:16:31.831Z,1.50
2023-04-18T10:19:26.319Z,1.50
2023-04-18T10:21:57.654Z,2.10
2023-04-18T10:27:09.287Z,1.80
2023-04-18T10:29:54.391Z,1.50
2023-04-18T10:32:23.879Z,1.90
2023-04-18T10:34:50.487Z,1.60
2023-04-18T10:37:16.957Z,1.80
2023-04-18T10:39:55.341Z,1.70
2023-04-18T10:42:47.976Z,1.80
2023-04-18T10:45:24.698Z,2.00
2023-04-18T10:48:11.389Z,1.60
2023-04-18T10:51:17.095Z,1.60
2023-04-18T10:53:56.220Z,1.70
2023-04-18T10:56:22.755Z,1.70
2023-04-18T10:58:53.248Z,1.60
2023-04-18T11:01:28.579Z,1.80
2023-04-18T11:03:57.167Z,1.60
2023-04-18T11:06:24.186Z,1.80
2023-04-18T11:08:51.046Z,1.70
2023-04-18T11:11:17.522Z,1.70
2023-04-18T11:13:55.088Z,1.50
2023-04-18T11:16:29.540Z,1.70
2023-04-18T11:18:56.296Z,1.50
2023-04-18T11:21:29.161Z,2.10
2023-04-18T11:23:57.492Z,1.80
2023-04-18T11:26:27.870Z,1.60
2023-04-18T11:28:58.249Z,2.00
2023-04-18T11:31:25.220Z,2.50
2023-04-18T11:33:52.390Z,2.00
2023-04-18T11:36:18.913Z,1.60
2023-04-18T11:38:45.484Z,1.90
2023-04-18T11:41:13.074Z,1.70
2023-04-18T11:43:43.103Z,1.80
2023-04-18T11:46:09.671Z,1.50
2023-04-18T11:48:41.460Z,1.70
2023-04-18T11:51:28.661Z,1.90
2023-04-18T11:53:55.156Z,1.90
2023-04-18T11:56:21.639Z,1.80
2023-04-18T11:58:48.166Z,1.60
2023-04-18T12:01:18.291Z,1.50
2023-04-18T12:03:59.275Z,1.40
2023-04-18T12:06:25.901Z,1.70
2023-04-18T12:08:59.064Z,1.60
2023-04-18T12:11:25.577Z,1.40
2023-04-18T12:13:56.466Z,2.80
2023-04-18T12:16:26.665Z,1.70
2023-04-18T12:18:59.278Z,1.90
2023-04-18T12:21:25.793Z,2.00
2023-04-18T12:23:52.316Z,1.80
2023-04-18T12:26:18.748Z,1.70
2023-04-18T12:28:46.080Z,1.80
2023-04-18T12:31:12.588Z,1.70
2023-04-18T12:33:39.052Z,1.70
2023-04-18T12:36:06.100Z,1.60
2023-04-18T12:38:32.576Z,1.70
2023-04-18T12:40:59.128Z,1.80
2023-04-18T12:43:25.623Z,1.80
2023-04-18T12:45:52.231Z,1.90
2023-04-18T12:48:18.704Z,1.80
2023-04-18T12:50:45.238Z,2.00
2023-04-18T12:53:11.694Z,2.30
2023-04-18T12:55:38.273Z,2.20
2023-04-18T12:58:04.700Z,2.20
2023-04-18T13:00:32.034Z,2.00
2023-04-18T13:02:58.917Z,1.90
2023-04-18T13:05:31.725Z,1.70
2023-04-18T13:08:15.294Z,1.80
2023-04-18T13:10:44.473Z,1.90
2023-04-18T13:13:11.077Z,1.80
2023-04-18T13:15:38.007Z,1.90
2023-04-18T13:18:04.941Z,1.90
2023-04-18T13:20:33.338Z,1.80
2023-04-18T13:22:59.902Z,1.80
2023-04-18T13:25:26.373Z,2.30
2023-04-18T13:27:52.846Z,2.10
2023-04-18T13:30:19.626Z,2.00
2023-04-18T13:32:46.183Z,2.00
2023-04-18T13:35:12.724Z,1.90
2023-04-18T13:37:39.575Z,1.80
2023-04-18T13:40:06.594Z,1.70
2023-04-18T13:42:37.351Z,2.00
2023-04-18T13:45:04.287Z,2.30
2023-04-18T13:47:30.847Z,1.90
2023-04-18T13:49:57.365Z,2.20
2023-04-18T13:52:23.920Z,2.10
2023-04-18T13:54:50.447Z,2.00
2023-04-18T13:57:16.949Z,1.90
2023-04-18T13:59:43.440Z,2.00
2023-04-18T14:02:10.154Z,1.90
2023-04-18T14:04:37.499Z,1.80
2023-04-18T14:07:04.259Z,2.10
2023-04-18T14:09:30.743Z,2.10
2023-04-18T14:11:57.236Z,2.10
2023-04-18T14:14:23.890Z,1.80
2023-04-18T14:16:50.392Z,2.10
2023-04-18T14:19:16.890Z,1.70
2023-04-18T14:21:43.618Z,1.90
2023-04-18T14:24:10.135Z,2.20
2023-04-18T14:26:36.910Z,1.90
2023-04-18T14:29:03.441Z,2.00
2023-04-18T14:31:30.107Z,1.90
2023-04-18T14:33:56.694Z,1.90
2023-04-18T14:36:23.201Z,2.30
2023-04-18T14:38:49.717Z,2.70
2023-04-18T14:41:16.536Z,1.90
2023-04-18T14:43:43.094Z,2.30
2023-04-18T14:46:13.679Z,2.10
2023-04-18T14:48:40.183Z,1.90
2023-04-18T14:51:06.659Z,2.20
2023-04-18T14:53:33.810Z,2.00
2023-04-18T14:56:00.275Z,1.70
2023-04-18T14:58:26.772Z,1.90
2023-04-18T15:00:53.266Z,2.10
2023-04-18T15:03:19.892Z,2.30
2023-04-18T15:05:46.481Z,2.20
2023-04-18T15:08:13.388Z,2.30
2023-04-18T15:10:40.517Z,2.20
2023-04-18T15:13:06.974Z,2.40
2023-04-18T15:15:33.470Z,2.00
2023-04-18T15:17:59.986Z,2.30
2023-04-18T15:20:26.780Z,2.50
2023-04-18T15:22:53.281Z,2.30
2023-04-18T15:25:19.778Z,2.10
2023-04-18T15:27:46.268Z,2.20
2023-04-18T15:30:13.715Z,2.30
2023-04-18T15:32:40.254Z,2.40
2023-04-18T15:35:07.150Z,2.10
2023-04-18T15:37:33.635Z,2.20
2023-04-18T15:40:00.473Z,2.20
2023-04-18T15:42:26.974Z,2.40
2023-04-18T15:44:53.789Z,2.50
2023-04-18T15:47:20.297Z,2.20
2023-04-18T15:49:47.233Z,2.40
2023-04-18T15:52:13.716Z,2.30
2023-04-18T15:54:40.857Z,2.20
2023-04-18T15:57:07.419Z,2.20
2023-04-18T15:59:33.879Z,2.40
2023-04-18T16:02:00.613Z,2.20
2023-04-18T16:04:27.329Z,2.20
2023-04-18T16:06:54.482Z,2.20
2023-04-18T16:09:20.932Z,2.00
2023-04-18T16:11:47.414Z,2.50
2023-04-18T16:14:14.419Z,2.30
2023-04-18T16:16:41.297Z,2.30
2023-04-18T16:19:07.764Z,2.10
2023-04-18T16:21:34.244Z,2.30
2023-04-18T16:24:00.880Z,2.50
2023-04-18T16:26:27.392Z,2.00
2023-04-18T16:28:53.960Z,2.10
2023-04-18T16:31:20.531Z,2.30
2023-04-18T16:33:47.160Z,2.10
2023-04-18T16:36:13.734Z,2.30
2023-04-18T16:38:40.217Z,2.60
2023-04-18T16:41:06.677Z,2.30
2023-04-18T16:43:33.191Z,2.20
2023-04-18T16:45:59.923Z,2.40
2023-04-18T16:48:26.623Z,2.30
2023-04-18T16:50:53.114Z,2.40
2023-04-18T16:53:19.582Z,2.30
2023-04-18T16:55:46.060Z,2.50
2023-04-18T16:58:12.635Z,2.60
2023-04-18T17:00:39.201Z,2.40
2023-04-18T17:03:05.731Z,2.50
2023-04-18T17:05:32.797Z,2.50
2023-04-18T17:08:00.050Z,2.20
2023-04-18T17:10:28.595Z,2.60
2023-04-18T17:12:55.167Z,2.40
2023-04-18T17:15:21.931Z,2.30
2023-04-18T17:17:48.447Z,3.00
2023-04-18T17:20:15.308Z,5.10
2023-04-18T17:22:41.827Z,2.80
2023-04-18T17:25:08.664Z,2.50
2023-04-18T17:27:35.156Z,2.40
2023-04-18T17:30:01.821Z,2.60
2023-04-18T17:32:28.323Z,2.70
2023-04-18T17:34:54.814Z,2.40
2023-04-18T17:37:21.300Z,3.00
2023-04-18T17:39:48.618Z,2.80
2023-04-18T17:42:15.257Z,3.60
2023-04-18T17:44:41.688Z,3.40
2023-04-18T17:47:08.163Z,4.30
2023-04-18T17:49:34.658Z,4.30
2023-04-18T17:52:01.500Z,4.70
2023-04-18T17:54:27.964Z,4.90
2023-04-18T17:56:54.522Z,14.40
2023-04-18T17:59:21.012Z,8.10
2023-04-18T18:01:48.949Z,5.90
2023-04-18T18:04:15.804Z,5.20
2023-04-18T18:06:42.380Z,5.10
2023-04-18T18:09:08.931Z,5.30
2023-04-18T18:11:35.629Z,5.60
2023-04-18T18:14:02.204Z,6.70
2023-04-18T18:16:31.094Z,6.00
2023-04-18T18:18:58.577Z,5.90
2023-04-18T18:21:25.140Z,7.30
2023-04-18T18:23:51.613Z,6.90
2023-04-18T18:26:18.211Z,7.10
2023-04-18T18:28:44.716Z,6.70
2023-04-18T18:31:11.257Z,6.60
2023-04-18T18:33:37.753Z,6.50
2023-04-18T18:36:04.545Z,6.80
2023-04-18T18:38:31.062Z,7.00
2023-04-18T18:40:57.577Z,6.90
2023-04-18T18:43:24.339Z,6.50
2023-04-18T18:45:50.829Z,7.00
2023-04-18T18:48:17.454Z,5.80
2023-04-18T18:50:43.909Z,5.00
2023-04-18T18:53:10.370Z,5.30
2023-04-18T18:55:36.832Z,5.60
2023-04-18T18:58:03.347Z,29.50
2023-04-18T19:00:29.826Z,6.50
2023-04-18T19:02:56.384Z,4.00
2023-04-18T19:05:23.148Z,4.10
2023-04-18T19:07:49.724Z,4.30
2023-04-18T19:10:16.371Z,4.60
2023-04-18T19:12:43.101Z,4.20
2023-04-18T19:15:11.214Z,4.20
2023-04-18T19:17:37.726Z,4.20
2023-04-18T19:20:04.643Z,4.00
2023-04-18T19:22:31.168Z,4.30
2023-04-18T19:24:57.650Z,4.50
2023-04-18T19:27:24.156Z,4.30
2023-04-18T19:29:50.631Z,4.10
2023-04-18T19:32:17.095Z,4.00
2023-04-18T19:34:43.618Z,3.40
2023-04-18T19:37:10.122Z,3.70
2023-04-18T19:39:36.584Z,3.60
2023-04-18T19:42:03.487Z,4.00
2023-04-18T19:44:29.970Z,3.70
2023-04-18T19:46:56.629Z,3.00
2023-04-18T19:49:23.114Z,3.30
2023-04-18T19:51:49.578Z,3.40
2023-04-18T19:54:16.307Z,3.30
2023-04-18T19:56:42.790Z,3.20
2023-04-18T19:59:09.255Z,3.00
2023-04-18T20:01:35.772Z,3.30
2023-04-18T20:04:02.525Z,3.30
2023-04-18T20:06:29.430Z,3.10
2023-04-18T20:08:55.919Z,3.10
2023-04-18T20:11:22.718Z,3.50
2023-04-18T20:13:49.291Z,2.90
2023-04-18T20:16:15.974Z,3.50
2023-04-18T20:18:42.450Z,2.70
2023-04-18T20:21:09.992Z,3.30
2023-04-18T20:23:37.307Z,2.70
2023-04-18T20:26:04.227Z,2.90
2023-04-18T20:28:31.622Z,2.80
2023-04-18T20:30:58.254Z,2.40
2023-04-18T20:33:24.769Z,2.90
2023-04-18T20:35:51.247Z,2.60
2023-04-18T20:38:17.689Z,2.70
2023-04-18T20:40:44.172Z,2.80
2023-04-18T20:43:11.134Z,2.10
2023-04-18T20:45:37.615Z,2.50
2023-04-18T20:48:04.429Z,2.40
2023-04-18T20:50:30.897Z,2.30
2023-04-18T20:52:58.641Z,2.50
2023-04-18T20:55:25.135Z,2.40
2023-04-18T20:57:51.610Z,2.40
2023-04-18T21:00:18.463Z,2.40
2023-04-18T21:02:45.262Z,2.40
2023-04-18T21:05:11.933Z,2.60
2023-04-18T21:07:38.451Z,2.30
2023-04-18T21:10:05.285Z,2.50
2023-04-18T21:12:31.757Z,2.50
2023-04-18T21:14:58.226Z,2.50
2023-04-18T21:17:24.790Z,2.90
2023-04-18T21:19:51.894Z,3.00
2023-04-18T21:22:18.469Z,2.90
2023-04-18T21:24:45.008Z,2.70
2023-04-18T21:27:11.465Z,2.80
2023-04-18T21:29:37.944Z,2.70
2023-04-18T21:32:04.649Z,2.70
2023-04-18T21:34:31.137Z,2.80
2023-04-18T21:36:57.639Z,2.50
2023-04-18T21:39:24.200Z,2.90
2023-04-18T21:41:50.662Z,3.10
2023-04-18T21:44:17.274Z,2.90
2023-04-18T21:46:43.807Z,2.80
2023-04-18T21:49:10.348Z,3.20
2023-04-18T21:51:36.869Z,3.20
2023-04-18T21:54:04.070Z,2.80
2023-04-18T21:56:30.542Z,2.90
2023-04-18T21:58:57.024Z,3.00
2023-04-18T22:01:23.575Z,2.90
2023-04-18T22:03:50.426Z,3.00
2023-04-18T22:06:17.013Z,2.90
2023-04-18T22:08:43.459Z,3.20
2023-04-18T22:11:10.004Z,3.60
2023-04-18T22:13:36.471Z,3.00
2023-04-18T22:16:03.688Z,3.00
2023-04-18T22:18:32.780Z,3.20
2023-04-18T22:21:00.176Z,3.20
2023-04-18T22:23:27.164Z,3.60
2023-04-18T22:25:53.692Z,3.30
2023-04-18T22:28:20.396Z,2.70
2023-04-18T22:30:46.877Z,2.80
2023-04-18T22:33:13.399Z,3.20
2023-04-18T22:35:39.855Z,2.60
2023-04-18T22:38:06.389Z,3.30
2023-04-18T22:40:32.898Z,3.40
2023-04-18T22:42:59.352Z,3.40
2023-04-18T22:45:25.856Z,3.50
2023-04-18T22:47:52.360Z,3.20
2023-04-18T22:50:18.996Z,3.30
2023-04-18T22:52:45.461Z,3.70
2023-04-18T22:55:12.021Z,3.10
2023-04-18T22:57:38.579Z,3.20
2023-04-18T23:00:05.628Z,3.40
2023-04-18T23:02:33.020Z,3.90
2023-04-18T23:04:59.658Z,3.20
2023-04-18T23:07:26.236Z,3.30
2023-04-18T23:09:52.697Z,3.60
2023-04-18T23:12:19.461Z,3.20
2023-04-18T23:14:45.925Z,3.70
2023-04-18T23:17:12.386Z,2.90
2023-04-18T23:19:38.957Z,2.90
2023-04-18T23:22:05.563Z,3.20
2023-04-18T23:24:32.088Z,3.20
2023-04-18T23:26:58.625Z,3.30
2023-04-18T23:29:25.122Z,3.20
2023-04-18T23:31:51.712Z,3.30
2023-04-18T23:34:18.303Z,3.40
2023-04-18T23:36:44.783Z,3.60
2023-04-18T23:39:11.242Z,3.40
2023-04-18T23:41:37.744Z,3.30
2023-04-18T23:44:04.374Z,3.20
2023-04-18T23:46:30.888Z,3.30
2023-04-18T23:48:57.392Z,3.70
2023-04-18T23:51:23.855Z,3.50
2023-04-18T23:53:50.415Z,3.60
2023-04-18T23:56:16.906Z,3.10
2023-04-18T23:58:43.384Z,3.40
